sensor_id;sensor_type;location;lat;lon;timestamp;temperature;humidity
55777;DHT22;54079;44.540;18.784;2023-06-10T00:02:08;17.70;99.90
55777;DHT22;54079;44.540;18.784;2023-06-10T00:04:35;17.50;99.90
55777;DHT22;54079;44.540;18.784;2023-06-10T00:07:03;17.30;99.90
55777;DHT22;54079;44.540;18.784;2023-06-10T00:09:38;17.40;99.90
55777;DHT22;54079;44.540;18.784;2023-06-10T00:12:05;17.50;99.90
55777;DHT22;54079;44.540;18.784;2023-06-10T00:14:36;17.30;99.90
55777;DHT22;54079;44.540;18.784;2023-06-10T00:17:02;17.40;99.90
55777;DHT22;54079;44.540;18.784;2023-06-10T00:19:28;17.40;99.90
55777;DHT22;54079;44.540;18.784;2023-06-10T00:21:56;17.40;99.90
55777;DHT22;54079;44.540;18.784;2023-06-10T00:24:22;17.50;99.90
55777;DHT22;54079;44.540;18.784;2023-06-10T00:26:48;17.60;99.90
55777;DHT22;54079;44.540;18.784;2023-06-10T00:29:14;17.50;99.90
55777;DHT22;54079;44.540;18.784;2023-06-10T00:31:41;17.50;99.90
55777;DHT22;54079;44.540;18.784;2023-06-10T00:34:07;17.50;99.90
55777;DHT22;54079;44.540;18.784;2023-06-10T00:36:34;17.60;99.90
55777;DHT22;54079;44.540;18.784;2023-06-10T00:39:01;17.40;99.90
55777;DHT22;54079;44.540;18.784;2023-06-10T00:41:28;17.20;99.90
55777;DHT22;54079;44.540;18.784;2023-06-10T00:43:54;17.30;99.90
55777;DHT22;54079;44.540;18.784;2023-06-10T00:46:21;17.40;99.90
55777;DHT22;54079;44.540;18.784;2023-06-10T00:48:48;17.30;99.90
55777;DHT22;54079;44.540;18.784;2023-06-10T00:51:16;17.30;99.90
55777;DHT22;54079;44.540;18.784;2023-06-10T00:53:43;17.40;99.90
55777;DHT22;54079;44.540;18.784;2023-06-10T00:56:10;17.20;99.90
55777;DHT22;54079;44.540;18.784;2023-06-10T00:58:36;17.20;99.90
55777;DHT22;54079;44.540;18.784;2023-06-10T01:01:03;17.20;99.90
55777;DHT22;54079;44.540;18.784;2023-06-10T01:03:29;17.20;99.90
55777;DHT22;54079;44.540;18.784;2023-06-10T01:06:03;17.20;99.90
55777;DHT22;54079;44.540;18.784;2023-06-10T01:08:45;17.10;99.90
55777;DHT22;54079;44.540;18.784;2023-06-10T01:11:21;17.10;99.90
55777;DHT22;54079;44.540;18.784;2023-06-10T01:13:50;17.00;99.90
55777;DHT22;54079;44.540;18.784;2023-06-10T01:16:21;17.10;99.90
55777;DHT22;54079;44.540;18.784;2023-06-10T01:18:47;17.10;99.90
55777;DHT22;54079;44.540;18.784;2023-06-10T01:21:21;17.10;99.90
55777;DHT22;54079;44.540;18.784;2023-06-10T01:23:47;17.00;99.90
55777;DHT22;54079;44.540;18.784;2023-06-10T01:26:14;17.00;99.90
55777;DHT22;54079;44.540;18.784;2023-06-10T01:28:49;16.80;99.90
55777;DHT22;54079;44.540;18.784;2023-06-10T01:31:46;16.90;99.90
55777;DHT22;54079;44.540;18.784;2023-06-10T01:34:18;16.90;99.90
55777;DHT22;54079;44.540;18.784;2023-06-10T01:36:48;16.90;99.90
55777;DHT22;54079;44.540;18.784;2023-06-10T01:39:17;16.90;99.90
55777;DHT22;54079;44.540;18.784;2023-06-10T01:41:44;16.90;99.90
55777;DHT22;54079;44.540;18.784;2023-06-10T01:44:11;16.80;99.90
55777;DHT22;54079;44.540;18.784;2023-06-10T01:46:37;16.90;99.90
55777;DHT22;54079;44.540;18.784;2023-06-10T01:49:03;17.00;99.90
55777;DHT22;54079;44.540;18.784;2023-06-10T01:51:28;17.10;99.90
55777;DHT22;54079;44.540;18.784;2023-06-10T01:53:57;17.10;99.90
55777;DHT22;54079;44.540;18.784;2023-06-10T01:56:23;17.20;99.90
55777;DHT22;54079;44.540;18.784;2023-06-10T01:58:49;17.20;99.90
55777;DHT22;54079;44.540;18.784;2023-06-10T02:01:15;17.20;99.90
55777;DHT22;54079;44.540;18.784;2023-06-10T02:03:41;17.10;99.90
55777;DHT22;54079;44.540;18.784;2023-06-10T02:06:07;17.00;99.90
55777;DHT22;54079;44.540;18.784;2023-06-10T02:08:33;17.00;99.90
55777;DHT22;54079;44.540;18.784;2023-06-10T02:10:58;17.00;99.90
55777;DHT22;54079;44.540;18.784;2023-06-10T02:13:24;17.00;99.90
55777;DHT22;54079;44.540;18.784;2023-06-10T02:15:50;16.90;99.90
55777;DHT22;54079;44.540;18.784;2023-06-10T02:18:19;16.60;99.90
55777;DHT22;54079;44.540;18.784;2023-06-10T02:20:46;16.50;99.90
55777;DHT22;54079;44.540;18.784;2023-06-10T02:23:12;16.70;99.90
55777;DHT22;54079;44.540;18.784;2023-06-10T02:25:38;16.80;99.90
55777;DHT22;54079;44.540;18.784;2023-06-10T02:28:04;16.90;99.90
55777;DHT22;54079;44.540;18.784;2023-06-10T02:30:30;16.70;99.90
55777;DHT22;54079;44.540;18.784;2023-06-10T02:32:56;16.70;99.90
55777;DHT22;54079;44.540;18.784;2023-06-10T02:35:22;16.80;99.90
55777;DHT22;54079;44.540;18.784;2023-06-10T02:37:49;16.90;99.90
55777;DHT22;54079;44.540;18.784;2023-06-10T02:40:16;16.90;99.90
55777;DHT22;54079;44.540;18.784;2023-06-10T02:42:42;17.00;99.90
55777;DHT22;54079;44.540;18.784;2023-06-10T02:45:08;17.00;99.90
55777;DHT22;54079;44.540;18.784;2023-06-10T02:47:37;17.00;99.90
55777;DHT22;54079;44.540;18.784;2023-06-10T02:50:03;17.00;99.90
55777;DHT22;54079;44.540;18.784;2023-06-10T02:52:29;17.10;99.90
55777;DHT22;54079;44.540;18.784;2023-06-10T02:54:57;17.10;99.90
55777;DHT22;54079;44.540;18.784;2023-06-10T02:57:22;17.10;99.90
55777;DHT22;54079;44.540;18.784;2023-06-10T02:59:48;17.10;99.90
55777;DHT22;54079;44.540;18.784;2023-06-10T03:02:14;17.10;99.90
55777;DHT22;54079;44.540;18.784;2023-06-10T03:04:41;17.00;99.90
55777;DHT22;54079;44.540;18.784;2023-06-10T03:07:09;17.00;99.90
55777;DHT22;54079;44.540;18.784;2023-06-10T03:09:36;16.90;99.90
55777;DHT22;54079;44.540;18.784;2023-06-10T03:12:03;16.60;99.90
55777;DHT22;54079;44.540;18.784;2023-06-10T03:14:29;16.70;99.90
55777;DHT22;54079;44.540;18.784;2023-06-10T03:16:55;16.70;99.90
55777;DHT22;54079;44.540;18.784;2023-06-10T03:19:21;16.70;99.90
55777;DHT22;54079;44.540;18.784;2023-06-10T03:21:50;16.70;99.90
55777;DHT22;54079;44.540;18.784;2023-06-10T03:24:20;16.80;99.90
55777;DHT22;54079;44.540;18.784;2023-06-10T03:26:47;16.90;99.90
55777;DHT22;54079;44.540;18.784;2023-06-10T03:29:13;16.90;99.90
55777;DHT22;54079;44.540;18.784;2023-06-10T03:31:39;16.80;99.90
55777;DHT22;54079;44.540;18.784;2023-06-10T03:34:05;17.00;99.90
55777;DHT22;54079;44.540;18.784;2023-06-10T03:36:31;17.10;99.90
55777;DHT22;54079;44.540;18.784;2023-06-10T03:38:57;17.20;99.90
55777;DHT22;54079;44.540;18.784;2023-06-10T03:41:23;17.30;99.90
55777;DHT22;54079;44.540;18.784;2023-06-10T03:43:49;17.40;99.90
55777;DHT22;54079;44.540;18.784;2023-06-10T03:46:15;17.50;99.90
55777;DHT22;54079;44.540;18.784;2023-06-10T03:48:43;17.60;99.90
55777;DHT22;54079;44.540;18.784;2023-06-10T03:51:09;17.70;99.90
55777;DHT22;54079;44.540;18.784;2023-06-10T03:53:35;17.80;99.90
55777;DHT22;54079;44.540;18.784;2023-06-10T03:56:01;17.80;99.90
55777;DHT22;54079;44.540;18.784;2023-06-10T03:58:27;17.80;99.90
55777;DHT22;54079;44.540;18.784;2023-06-10T04:00:52;18.00;99.90
55777;DHT22;54079;44.540;18.784;2023-06-10T04:03:19;18.00;99.90
55777;DHT22;54079;44.540;18.784;2023-06-10T04:05:46;18.00;99.90
55777;DHT22;54079;44.540;18.784;2023-06-10T04:08:12;18.10;99.90
55777;DHT22;54079;44.540;18.784;2023-06-10T04:10:38;18.10;99.90
55777;DHT22;54079;44.540;18.784;2023-06-10T04:13:04;18.40;99.90
55777;DHT22;54079;44.540;18.784;2023-06-10T04:15:30;19.70;99.90
55777;DHT22;54079;44.540;18.784;2023-06-10T04:17:58;21.00;99.90
55777;DHT22;54079;44.540;18.784;2023-06-10T04:20:25;22.30;99.50
55777;DHT22;54079;44.540;18.784;2023-06-10T04:22:51;23.20;97.70
55777;DHT22;54079;44.540;18.784;2023-06-10T04:25:17;23.90;95.80
55777;DHT22;54079;44.540;18.784;2023-06-10T04:27:43;24.00;92.30
55777;DHT22;54079;44.540;18.784;2023-06-10T04:30:10;23.90;92.60
55777;DHT22;54079;44.540;18.784;2023-06-10T04:32:36;24.50;92.90
55777;DHT22;54079;44.540;18.784;2023-06-10T04:35:02;24.80;91.50
55777;DHT22;54079;44.540;18.784;2023-06-10T04:37:28;24.70;91.00
55777;DHT22;54079;44.540;18.784;2023-06-10T04:39:54;25.40;91.30
55777;DHT22;54079;44.540;18.784;2023-06-10T04:42:21;26.90;88.40
55777;DHT22;54079;44.540;18.784;2023-06-10T04:44:47;27.50;85.50
55777;DHT22;54079;44.540;18.784;2023-06-10T04:47:13;27.40;82.50
55777;DHT22;54079;44.540;18.784;2023-06-10T04:49:39;26.70;83.20
55777;DHT22;54079;44.540;18.784;2023-06-10T04:52:05;26.80;82.90
55777;DHT22;54079;44.540;18.784;2023-06-10T04:54:31;27.70;81.10
55777;DHT22;54079;44.540;18.784;2023-06-10T04:56:58;29.50;78.90
55777;DHT22;54079;44.540;18.784;2023-06-10T04:59:25;30.70;76.40
55777;DHT22;54079;44.540;18.784;2023-06-10T05:01:52;30.30;75.20
55777;DHT22;54079;44.540;18.784;2023-06-10T05:04:18;30.40;75.20
55777;DHT22;54079;44.540;18.784;2023-06-10T05:06:44;31.70;73.40
55777;DHT22;54079;44.540;18.784;2023-06-10T05:09:10;31.70;71.80
55777;DHT22;54079;44.540;18.784;2023-06-10T05:11:36;31.00;72.50
55777;DHT22;54079;44.540;18.784;2023-06-10T05:14:02;30.50;73.00
55777;DHT22;54079;44.540;18.784;2023-06-10T05:16:28;30.70;73.00
55777;DHT22;54079;44.540;18.784;2023-06-10T05:18:53;32.00;71.70
55777;DHT22;54079;44.540;18.784;2023-06-10T05:21:19;33.20;69.80
55777;DHT22;54079;44.540;18.784;2023-06-10T05:23:46;34.20;69.10
55777;DHT22;54079;44.540;18.784;2023-06-10T05:26:12;34.90;67.00
55777;DHT22;54079;44.540;18.784;2023-06-10T05:28:38;35.80;64.90
55777;DHT22;54079;44.540;18.784;2023-06-10T05:31:04;36.50;64.10
55777;DHT22;54079;44.540;18.784;2023-06-10T05:33:30;36.80;63.30
55777;DHT22;54079;44.540;18.784;2023-06-10T05:35:56;37.40;62.80
55777;DHT22;54079;44.540;18.784;2023-06-10T05:38:22;38.00;62.60
55777;DHT22;54079;44.540;18.784;2023-06-10T05:40:48;38.50;60.90
55777;DHT22;54079;44.540;18.784;2023-06-10T05:43:14;38.60;59.80
55777;DHT22;54079;44.540;18.784;2023-06-10T05:45:42;38.90;59.60
55777;DHT22;54079;44.540;18.784;2023-06-10T05:48:08;38.60;59.10
55777;DHT22;54079;44.540;18.784;2023-06-10T05:50:34;39.90;58.40
55777;DHT22;54079;44.540;18.784;2023-06-10T05:53:04;40.50;57.30
55777;DHT22;54079;44.540;18.784;2023-06-10T05:55:32;41.10;56.20
55777;DHT22;54079;44.540;18.784;2023-06-10T05:57:59;40.90;56.70
55777;DHT22;54079;44.540;18.784;2023-06-10T06:00:28;41.40;56.40
55777;DHT22;54079;44.540;18.784;2023-06-10T06:02:54;42.20;55.50
55777;DHT22;54079;44.540;18.784;2023-06-10T06:05:21;41.90;54.50
55777;DHT22;54079;44.540;18.784;2023-06-10T06:07:46;42.00;55.30
55777;DHT22;54079;44.540;18.784;2023-06-10T06:10:12;42.70;55.00
55777;DHT22;54079;44.540;18.784;2023-06-10T06:12:39;42.30;54.30
55777;DHT22;54079;44.540;18.784;2023-06-10T06:15:06;40.20;56.70
55777;DHT22;54079;44.540;18.784;2023-06-10T06:17:33;41.60;55.10
55777;DHT22;54079;44.540;18.784;2023-06-10T06:19:59;42.20;54.00
55777;DHT22;54079;44.540;18.784;2023-06-10T06:22:25;42.40;54.20
55777;DHT22;54079;44.540;18.784;2023-06-10T06:24:51;43.60;53.60
55777;DHT22;54079;44.540;18.784;2023-06-10T06:27:17;44.60;52.90
55777;DHT22;54079;44.540;18.784;2023-06-10T06:29:43;45.10;51.30
55777;DHT22;54079;44.540;18.784;2023-06-10T06:32:09;43.10;51.10
55777;DHT22;54079;44.540;18.784;2023-06-10T06:34:35;42.80;52.00
55777;DHT22;54079;44.540;18.784;2023-06-10T06:37:01;44.30;52.40
55777;DHT22;54079;44.540;18.784;2023-06-10T06:39:27;44.80;50.10
55777;DHT22;54079;44.540;18.784;2023-06-10T06:41:53;46.10;49.90
55777;DHT22;54079;44.540;18.784;2023-06-10T06:44:19;45.60;49.70
55777;DHT22;54079;44.540;18.784;2023-06-10T06:46:45;46.10;50.50
55777;DHT22;54079;44.540;18.784;2023-06-10T06:49:11;46.70;49.60
55777;DHT22;54079;44.540;18.784;2023-06-10T06:51:37;48.10;48.70
55777;DHT22;54079;44.540;18.784;2023-06-10T06:54:03;48.30;47.40
55777;DHT22;54079;44.540;18.784;2023-06-10T06:56:31;49.10;47.10
55777;DHT22;54079;44.540;18.784;2023-06-10T06:58:57;47.40;47.00
55777;DHT22;54079;44.540;18.784;2023-06-10T07:01:23;45.10;47.40
55777;DHT22;54079;44.540;18.784;2023-06-10T07:03:49;44.20;48.10
55777;DHT22;54079;44.540;18.784;2023-06-10T07:06:15;39.80;50.80
55777;DHT22;54079;44.540;18.784;2023-06-10T07:08:40;37.90;54.20
55777;DHT22;54079;44.540;18.784;2023-06-10T07:11:06;36.50;55.40
55777;DHT22;54079;44.540;18.784;2023-06-10T07:13:32;35.40;57.60
55777;DHT22;54079;44.540;18.784;2023-06-10T07:15:58;37.40;58.00
55777;DHT22;54079;44.540;18.784;2023-06-10T07:18:24;40.30;54.60
55777;DHT22;54079;44.540;18.784;2023-06-10T07:20:50;41.50;52.50
55777;DHT22;54079;44.540;18.784;2023-06-10T07:23:16;43.00;51.70
55777;DHT22;54079;44.540;18.784;2023-06-10T07:25:42;44.00;50.30
55777;DHT22;54079;44.540;18.784;2023-06-10T07:28:08;44.90;49.80
55777;DHT22;54079;44.540;18.784;2023-06-10T07:30:34;46.20;49.60
55777;DHT22;54079;44.540;18.784;2023-06-10T07:33:00;47.80;48.00
55777;DHT22;54079;44.540;18.784;2023-06-10T07:35:27;47.20;47.90
55777;DHT22;54079;44.540;18.784;2023-06-10T07:37:53;48.60;48.10
55777;DHT22;54079;44.540;18.784;2023-06-10T07:40:19;48.70;46.20
55777;DHT22;54079;44.540;18.784;2023-06-10T07:42:45;48.80;46.70
55777;DHT22;54079;44.540;18.784;2023-06-10T07:45:11;45.40;47.30
55777;DHT22;54079;44.540;18.784;2023-06-10T07:47:37;46.30;48.80
55777;DHT22;54079;44.540;18.784;2023-06-10T07:50:03;47.90;48.10
55777;DHT22;54079;44.540;18.784;2023-06-10T07:52:29;50.00;46.60
55777;DHT22;54079;44.540;18.784;2023-06-10T07:54:56;51.10;45.60
55777;DHT22;54079;44.540;18.784;2023-06-10T07:57:22;51.80;45.90
55777;DHT22;54079;44.540;18.784;2023-06-10T07:59:48;52.60;44.90
55777;DHT22;54079;44.540;18.784;2023-06-10T08:02:14;52.90;44.70
55777;DHT22;54079;44.540;18.784;2023-06-10T08:04:40;52.10;44.80
55777;DHT22;54079;44.540;18.784;2023-06-10T08:07:06;52.40;44.50
55777;DHT22;54079;44.540;18.784;2023-06-10T08:09:32;51.00;44.50
55777;DHT22;54079;44.540;18.784;2023-06-10T08:11:58;48.90;44.90
55777;DHT22;54079;44.540;18.784;2023-06-10T08:14:24;44.60;47.40
55777;DHT22;54079;44.540;18.784;2023-06-10T08:16:50;42.30;49.50
55777;DHT22;54079;44.540;18.784;2023-06-10T08:19:16;40.10;51.60
55777;DHT22;54079;44.540;18.784;2023-06-10T08:21:42;38.90;53.20
55777;DHT22;54079;44.540;18.784;2023-06-10T08:24:09;37.80;54.30
55777;DHT22;54079;44.540;18.784;2023-06-10T08:26:35;36.20;56.60
55777;DHT22;54079;44.540;18.784;2023-06-10T08:29:01;34.90;58.00
55777;DHT22;54079;44.540;18.784;2023-06-10T08:31:27;32.90;62.70
55777;DHT22;54079;44.540;18.784;2023-06-10T08:33:53;32.00;65.40
55777;DHT22;54079;44.540;18.784;2023-06-10T08:36:19;31.30;67.10
55777;DHT22;54079;44.540;18.784;2023-06-10T08:38:45;31.00;67.90
55777;DHT22;54079;44.540;18.784;2023-06-10T08:41:12;30.60;68.80
55777;DHT22;54079;44.540;18.784;2023-06-10T08:43:45;29.90;70.30
55777;DHT22;54079;44.540;18.784;2023-06-10T08:46:14;30.00;70.80
55777;DHT22;54079;44.540;18.784;2023-06-10T08:48:43;29.80;71.30
55777;DHT22;54079;44.540;18.784;2023-06-10T08:51:14;29.30;74.70
55777;DHT22;54079;44.540;18.784;2023-06-10T08:53:50;30.90;71.70
55777;DHT22;54079;44.540;18.784;2023-06-10T08:56:19;34.00;68.10
55777;DHT22;54079;44.540;18.784;2023-06-10T08:58:47;36.20;64.10
55777;DHT22;54079;44.540;18.784;2023-06-10T09:01:13;38.90;59.70
55777;DHT22;54079;44.540;18.784;2023-06-10T09:03:41;40.80;57.10
55777;DHT22;54079;44.540;18.784;2023-06-10T09:06:07;41.10;55.90
55777;DHT22;54079;44.540;18.784;2023-06-10T09:08:34;38.40;59.60
55777;DHT22;54079;44.540;18.784;2023-06-10T09:11:01;36.70;60.30
55777;DHT22;54079;44.540;18.784;2023-06-10T09:13:27;35.30;59.00
55777;DHT22;54079;44.540;18.784;2023-06-10T09:15:53;35.10;61.50
55777;DHT22;54079;44.540;18.784;2023-06-10T09:18:22;34.40;61.40
55777;DHT22;54079;44.540;18.784;2023-06-10T09:20:48;34.10;62.30
55777;DHT22;54079;44.540;18.784;2023-06-10T09:23:15;33.50;64.00
55777;DHT22;54079;44.540;18.784;2023-06-10T09:25:41;33.20;63.50
55777;DHT22;54079;44.540;18.784;2023-06-10T09:28:15;33.50;62.00
55777;DHT22;54079;44.540;18.784;2023-06-10T09:30:41;33.30;63.60
55777;DHT22;54079;44.540;18.784;2023-06-10T09:33:12;32.90;61.90
55777;DHT22;54079;44.540;18.784;2023-06-10T09:35:46;32.70;63.70
55777;DHT22;54079;44.540;18.784;2023-06-10T09:38:14;32.90;64.00
55777;DHT22;54079;44.540;18.784;2023-06-10T09:40:51;33.10;64.30
55777;DHT22;54079;44.540;18.784;2023-06-10T09:43:18;33.30;63.00
55777;DHT22;54079;44.540;18.784;2023-06-10T09:45:43;32.80;63.20
55777;DHT22;54079;44.540;18.784;2023-06-10T09:48:09;32.50;62.60
55777;DHT22;54079;44.540;18.784;2023-06-10T09:50:42;32.30;63.30
55777;DHT22;54079;44.540;18.784;2023-06-10T09:53:10;32.60;64.40
55777;DHT22;54079;44.540;18.784;2023-06-10T09:55:40;32.30;64.80
55777;DHT22;54079;44.540;18.784;2023-06-10T09:58:07;32.80;62.90
55777;DHT22;54079;44.540;18.784;2023-06-10T10:00:33;32.90;64.10
55777;DHT22;54079;44.540;18.784;2023-06-10T10:03:00;33.00;63.00
55777;DHT22;54079;44.540;18.784;2023-06-10T10:05:27;32.40;63.50
55777;DHT22;54079;44.540;18.784;2023-06-10T10:07:53;32.30;62.80
55777;DHT22;54079;44.540;18.784;2023-06-10T10:10:22;32.40;65.40
55777;DHT22;54079;44.540;18.784;2023-06-10T10:12:51;32.90;64.90
55777;DHT22;54079;44.540;18.784;2023-06-10T10:15:20;32.80;63.50
55777;DHT22;54079;44.540;18.784;2023-06-10T10:17:58;33.20;62.50
55777;DHT22;54079;44.540;18.784;2023-06-10T10:20:29;33.70;62.50
55777;DHT22;54079;44.540;18.784;2023-06-10T10:22:57;34.10;62.50
55777;DHT22;54079;44.540;18.784;2023-06-10T10:25:28;34.30;60.70
55777;DHT22;54079;44.540;18.784;2023-06-10T10:28:02;33.40;60.10
55777;DHT22;54079;44.540;18.784;2023-06-10T10:30:41;32.80;62.10
55777;DHT22;54079;44.540;18.784;2023-06-10T10:33:19;32.30;64.00
55777;DHT22;54079;44.540;18.784;2023-06-10T10:35:49;31.60;64.40
55777;DHT22;54079;44.540;18.784;2023-06-10T10:38:16;31.60;64.40
55777;DHT22;54079;44.540;18.784;2023-06-10T10:40:44;31.50;65.00
55777;DHT22;54079;44.540;18.784;2023-06-10T10:43:11;31.50;65.80
55777;DHT22;54079;44.540;18.784;2023-06-10T10:45:37;31.20;65.70
55777;DHT22;54079;44.540;18.784;2023-06-10T10:48:08;31.10;64.20
55777;DHT22;54079;44.540;18.784;2023-06-10T10:50:38;31.20;64.60
55777;DHT22;54079;44.540;18.784;2023-06-10T10:53:05;31.40;64.20
55777;DHT22;54079;44.540;18.784;2023-06-10T10:55:32;31.80;65.70
55777;DHT22;54079;44.540;18.784;2023-06-10T10:58:03;32.10;66.00
55777;DHT22;54079;44.540;18.784;2023-06-10T11:00:37;31.70;65.70
55777;DHT22;54079;44.540;18.784;2023-06-10T11:08:04;30.80;66.60
55777;DHT22;54079;44.540;18.784;2023-06-10T11:10:33;30.20;67.80
55777;DHT22;54079;44.540;18.784;2023-06-10T11:12:59;29.70;70.50
55777;DHT22;54079;44.540;18.784;2023-06-10T11:15:27;27.90;74.40
55777;DHT22;54079;44.540;18.784;2023-06-10T11:31:27;25.40;83.20
55777;DHT22;54079;44.540;18.784;2023-06-10T11:33:58;24.70;83.30
55777;DHT22;54079;44.540;18.784;2023-06-10T11:36:26;24.40;85.10
55777;DHT22;54079;44.540;18.784;2023-06-10T11:38:56;24.80;86.10
55777;DHT22;54079;44.540;18.784;2023-06-10T11:41:23;25.30;84.50
55777;DHT22;54079;44.540;18.784;2023-06-10T11:43:49;25.40;82.70
55777;DHT22;54079;44.540;18.784;2023-06-10T11:46:15;25.40;83.90
55777;DHT22;54079;44.540;18.784;2023-06-10T11:48:52;25.20;85.40
55777;DHT22;54079;44.540;18.784;2023-06-10T11:51:19;25.20;87.00
55777;DHT22;54079;44.540;18.784;2023-06-10T11:53:48;25.50;84.50
55777;DHT22;54079;44.540;18.784;2023-06-10T11:56:23;25.90;83.60
55777;DHT22;54079;44.540;18.784;2023-06-10T11:58:54;26.20;85.80
55777;DHT22;54079;44.540;18.784;2023-06-10T12:01:25;26.50;83.80
55777;DHT22;54079;44.540;18.784;2023-06-10T12:06:27;27.60;80.90
55777;DHT22;54079;44.540;18.784;2023-06-10T12:09:02;27.50;79.60
55777;DHT22;54079;44.540;18.784;2023-06-10T12:11:28;27.60;80.80
55777;DHT22;54079;44.540;18.784;2023-06-10T12:13:54;28.20;82.00
55777;DHT22;54079;44.540;18.784;2023-06-10T12:16:20;28.60;80.20
55777;DHT22;54079;44.540;18.784;2023-06-10T12:18:47;28.60;78.30
55777;DHT22;54079;44.540;18.784;2023-06-10T12:21:25;28.90;78.20
55777;DHT22;54079;44.540;18.784;2023-06-10T12:24:08;29.30;79.70
55777;DHT22;54079;44.540;18.784;2023-06-10T12:26:42;29.20;81.30
55777;DHT22;54079;44.540;18.784;2023-06-10T12:29:21;29.20;77.90
55777;DHT22;54079;44.540;18.784;2023-06-10T12:32:03;29.40;74.00
55777;DHT22;54079;44.540;18.784;2023-06-10T12:34:38;29.80;74.20
55777;DHT22;54079;44.540;18.784;2023-06-10T12:37:09;30.00;77.00
55777;DHT22;54079;44.540;18.784;2023-06-10T12:39:39;30.30;75.70
55777;DHT22;54079;44.540;18.784;2023-06-10T12:42:05;30.30;76.90
55777;DHT22;54079;44.540;18.784;2023-06-10T12:44:38;30.50;76.50
55777;DHT22;54079;44.540;18.784;2023-06-10T12:47:11;30.80;76.20
55777;DHT22;54079;44.540;18.784;2023-06-10T12:49:40;30.80;76.60
55777;DHT22;54079;44.540;18.784;2023-06-10T12:52:06;30.80;76.50
55777;DHT22;54079;44.540;18.784;2023-06-10T12:54:33;31.00;75.80
55777;DHT22;54079;44.540;18.784;2023-06-10T12:57:00;31.30;75.50
55777;DHT22;54079;44.540;18.784;2023-06-10T12:59:27;31.30;74.90
55777;DHT22;54079;44.540;18.784;2023-06-10T13:01:54;31.30;76.10
55777;DHT22;54079;44.540;18.784;2023-06-10T13:04:20;31.10;75.20
55777;DHT22;54079;44.540;18.784;2023-06-10T13:06:48;31.10;74.80
55777;DHT22;54079;44.540;18.784;2023-06-10T13:09:15;31.00;73.40
55777;DHT22;54079;44.540;18.784;2023-06-10T13:11:42;31.00;72.70
55777;DHT22;54079;44.540;18.784;2023-06-10T13:14:09;31.00;72.10
55777;DHT22;54079;44.540;18.784;2023-06-10T13:16:36;30.20;70.20
55777;DHT22;54079;44.540;18.784;2023-06-10T13:19:04;30.10;72.50
55777;DHT22;54079;44.540;18.784;2023-06-10T13:21:33;30.00;75.10
55777;DHT22;54079;44.540;18.784;2023-06-10T13:23:59;30.30;72.50
55777;DHT22;54079;44.540;18.784;2023-06-10T13:26:25;30.80;71.40
55777;DHT22;54079;44.540;18.784;2023-06-10T13:28:51;31.10;70.80
55777;DHT22;54079;44.540;18.784;2023-06-10T13:31:18;31.10;71.90
55777;DHT22;54079;44.540;18.784;2023-06-10T13:33:46;31.10;71.10
55777;DHT22;54079;44.540;18.784;2023-06-10T13:36:12;31.00;70.40
55777;DHT22;54079;44.540;18.784;2023-06-10T13:38:38;30.70;70.70
55777;DHT22;54079;44.540;18.784;2023-06-10T13:41:04;30.40;71.50
55777;DHT22;54079;44.540;18.784;2023-06-10T13:43:31;30.10;73.00
55777;DHT22;54079;44.540;18.784;2023-06-10T13:45:57;29.40;78.10
55777;DHT22;54079;44.540;18.784;2023-06-10T13:48:23;29.40;74.40
55777;DHT22;54079;44.540;18.784;2023-06-10T13:50:49;29.50;70.30
55777;DHT22;54079;44.540;18.784;2023-06-10T13:53:16;29.50;73.70
55777;DHT22;54079;44.540;18.784;2023-06-10T13:55:42;29.30;73.30
55777;DHT22;54079;44.540;18.784;2023-06-10T13:58:08;28.90;73.50
55777;DHT22;54079;44.540;18.784;2023-06-10T14:00:34;29.00;77.70
55777;DHT22;54079;44.540;18.784;2023-06-10T14:03:00;29.20;77.60
55777;DHT22;54079;44.540;18.784;2023-06-10T14:05:26;29.40;75.10
55777;DHT22;54079;44.540;18.784;2023-06-10T14:07:52;29.40;73.40
55777;DHT22;54079;44.540;18.784;2023-06-10T14:10:19;30.00;73.90
55777;DHT22;54079;44.540;18.784;2023-06-10T14:12:45;30.20;73.50
55777;DHT22;54079;44.540;18.784;2023-06-10T14:15:12;30.10;74.00
55777;DHT22;54079;44.540;18.784;2023-06-10T14:17:38;30.10;71.70
55777;DHT22;54079;44.540;18.784;2023-06-10T14:20:04;30.10;73.00
55777;DHT22;54079;44.540;18.784;2023-06-10T14:22:31;30.00;74.80
55777;DHT22;54079;44.540;18.784;2023-06-10T14:24:56;29.60;75.60
55777;DHT22;54079;44.540;18.784;2023-06-10T14:27:22;29.70;76.20
55777;DHT22;54079;44.540;18.784;2023-06-10T14:29:48;29.70;74.20
55777;DHT22;54079;44.540;18.784;2023-06-10T14:32:14;29.70;74.10
55777;DHT22;54079;44.540;18.784;2023-06-10T14:34:40;29.60;75.80
55777;DHT22;54079;44.540;18.784;2023-06-10T14:37:07;29.60;75.00
55777;DHT22;54079;44.540;18.784;2023-06-10T14:39:34;29.70;74.60
55777;DHT22;54079;44.540;18.784;2023-06-10T14:42:00;29.80;74.80
55777;DHT22;54079;44.540;18.784;2023-06-10T14:44:26;30.00;74.80
55777;DHT22;54079;44.540;18.784;2023-06-10T14:46:52;30.10;74.50
55777;DHT22;54079;44.540;18.784;2023-06-10T14:49:18;30.20;75.30
55777;DHT22;54079;44.540;18.784;2023-06-10T14:51:43;29.90;75.10
55777;DHT22;54079;44.540;18.784;2023-06-10T14:54:10;29.20;72.30
55777;DHT22;54079;44.540;18.784;2023-06-10T14:56:36;28.20;74.80
55777;DHT22;54079;44.540;18.784;2023-06-10T14:59:02;27.70;78.30
55777;DHT22;54079;44.540;18.784;2023-06-10T15:01:28;27.70;79.80
55777;DHT22;54079;44.540;18.784;2023-06-10T15:03:54;27.80;81.20
55777;DHT22;54079;44.540;18.784;2023-06-10T15:06:20;27.90;79.80
55777;DHT22;54079;44.540;18.784;2023-06-10T15:08:48;27.90;78.30
55777;DHT22;54079;44.540;18.784;2023-06-10T15:11:15;28.10;80.10
55777;DHT22;54079;44.540;18.784;2023-06-10T15:13:41;28.00;80.20
55777;DHT22;54079;44.540;18.784;2023-06-10T15:16:07;28.00;78.00
55777;DHT22;54079;44.540;18.784;2023-06-10T15:18:33;28.30;79.00
55777;DHT22;54079;44.540;18.784;2023-06-10T15:20:59;28.60;80.20
55777;DHT22;54079;44.540;18.784;2023-06-10T15:23:25;28.70;78.20
55777;DHT22;54079;44.540;18.784;2023-06-10T15:25:51;28.70;76.00
55777;DHT22;54079;44.540;18.784;2023-06-10T15:28:17;28.90;75.70
55777;DHT22;54079;44.540;18.784;2023-06-10T15:30:43;28.90;75.90
55777;DHT22;54079;44.540;18.784;2023-06-10T15:33:09;29.40;77.10
55777;DHT22;54079;44.540;18.784;2023-06-10T15:35:35;29.40;73.90
55777;DHT22;54079;44.540;18.784;2023-06-10T15:38:01;28.90;77.40